sensor_id;sensor_type;location;lat;lon;timestamp;temperature;humidity
41427;DHT22;27171;51.812;19.514;2023-02-11T00:00:57;1.80;99.90
41427;DHT22;27171;51.812;19.514;2023-02-11T00:03:59;1.70;99.90
41427;DHT22;27171;51.812;19.514;2023-02-11T00:07:00;1.70;99.90
41427;DHT22;27171;51.812;19.514;2023-02-11T00:10:02;1.70;99.90
41427;DHT22;27171;51.812;19.514;2023-02-11T00:13:03;1.70;99.90
41427;DHT22;27171;51.812;19.514;2023-02-11T00:16:10;1.70;99.90
41427;DHT22;27171;51.812;19.514;2023-02-11T00:19:15;1.70;99.90
41427;DHT22;27171;51.812;19.514;2023-02-11T00:22:16;1.70;99.90
41427;DHT22;27171;51.812;19.514;2023-02-11T00:25:18;1.70;99.90
41427;DHT22;27171;51.812;19.514;2023-02-11T00:28:19;1.70;99.90
41427;DHT22;27171;51.812;19.514;2023-02-11T00:31:20;1.70;99.90
41427;DHT22;27171;51.812;19.514;2023-02-11T00:34:24;1.70;99.90
41427;DHT22;27171;51.812;19.514;2023-02-11T00:37:25;1.70;99.90
41427;DHT22;27171;51.812;19.514;2023-02-11T00:40:26;1.70;99.90
41427;DHT22;27171;51.812;19.514;2023-02-11T00:43:27;1.70;99.90
41427;DHT22;27171;51.812;19.514;2023-02-11T00:46:28;1.70;99.90
41427;DHT22;27171;51.812;19.514;2023-02-11T00:49:29;1.70;99.90
41427;DHT22;27171;51.812;19.514;2023-02-11T00:52:30;1.60;99.90
41427;DHT22;27171;51.812;19.514;2023-02-11T00:55:32;1.60;99.90
41427;DHT22;27171;51.812;19.514;2023-02-11T00:58:33;1.60;99.90
41427;DHT22;27171;51.812;19.514;2023-02-11T01:01:34;1.60;99.90
41427;DHT22;27171;51.812;19.514;2023-02-11T01:04:36;1.60;99.90
41427;DHT22;27171;51.812;19.514;2023-02-11T01:07:37;1.60;99.90
41427;DHT22;27171;51.812;19.514;2023-02-11T01:10:38;1.50;99.90
41427;DHT22;27171;51.812;19.514;2023-02-11T01:13:39;1.50;99.90
41427;DHT22;27171;51.812;19.514;2023-02-11T01:16:40;1.50;99.90
41427;DHT22;27171;51.812;19.514;2023-02-11T01:19:41;1.50;99.90
41427;DHT22;27171;51.812;19.514;2023-02-11T01:22:42;1.40;99.90
41427;DHT22;27171;51.812;19.514;2023-02-11T01:25:44;1.40;99.90
41427;DHT22;27171;51.812;19.514;2023-02-11T01:28:45;1.40;99.90
41427;DHT22;27171;51.812;19.514;2023-02-11T01:31:46;1.40;99.90
41427;DHT22;27171;51.812;19.514;2023-02-11T01:34:47;1.40;99.90
41427;DHT22;27171;51.812;19.514;2023-02-11T01:37:48;1.40;99.90
41427;DHT22;27171;51.812;19.514;2023-02-11T01:40:50;1.40;99.90
41427;DHT22;27171;51.812;19.514;2023-02-11T01:43:52;1.40;99.90
41427;DHT22;27171;51.812;19.514;2023-02-11T01:46:53;1.40;99.90
41427;DHT22;27171;51.812;19.514;2023-02-11T01:49:58;1.40;99.90
41427;DHT22;27171;51.812;19.514;2023-02-11T01:53:02;1.40;99.90
41427;DHT22;27171;51.812;19.514;2023-02-11T01:56:04;1.40;99.90
41427;DHT22;27171;51.812;19.514;2023-02-11T01:59:12;1.40;99.90
41427;DHT22;27171;51.812;19.514;2023-02-11T02:02:19;1.40;99.90
41427;DHT22;27171;51.812;19.514;2023-02-11T02:05:31;1.40;99.90
41427;DHT22;27171;51.812;19.514;2023-02-11T02:08:41;1.40;99.90
41427;DHT22;27171;51.812;19.514;2023-02-11T02:11:43;1.40;99.90
41427;DHT22;27171;51.812;19.514;2023-02-11T02:14:45;1.40;99.90
41427;DHT22;27171;51.812;19.514;2023-02-11T02:18:01;1.30;99.90
41427;DHT22;27171;51.812;19.514;2023-02-11T02:31:20;1.30;99.90
41427;DHT22;27171;51.812;19.514;2023-02-11T02:34:36;1.30;99.90
41427;DHT22;27171;51.812;19.514;2023-02-11T02:44:03;1.30;99.90
41427;DHT22;27171;51.812;19.514;2023-02-11T02:47:05;1.30;99.90
41427;DHT22;27171;51.812;19.514;2023-02-11T02:50:07;1.30;99.90
41427;DHT22;27171;51.812;19.514;2023-02-11T02:56:43;1.30;99.90
41427;DHT22;27171;51.812;19.514;2023-02-11T03:09:45;1.30;99.90
41427;DHT22;27171;51.812;19.514;2023-02-11T03:12:48;1.30;99.90
41427;DHT22;27171;51.812;19.514;2023-02-11T03:15:53;1.30;99.90
41427;DHT22;27171;51.812;19.514;2023-02-11T03:19:12;1.20;99.90
41427;DHT22;27171;51.812;19.514;2023-02-11T03:22:32;1.20;99.90
41427;DHT22;27171;51.812;19.514;2023-02-11T03:25:39;1.30;99.90
41427;DHT22;27171;51.812;19.514;2023-02-11T03:29:22;1.30;99.90
41427;DHT22;27171;51.812;19.514;2023-02-11T03:32:22;1.30;99.90
41427;DHT22;27171;51.812;19.514;2023-02-11T03:35:34;1.30;99.90
41427;DHT22;27171;51.812;19.514;2023-02-11T03:38:44;1.30;99.90
41427;DHT22;27171;51.812;19.514;2023-02-11T03:41:47;1.30;99.90
41427;DHT22;27171;51.812;19.514;2023-02-11T03:44:55;1.30;99.90
41427;DHT22;27171;51.812;19.514;2023-02-11T03:48:22;1.30;99.90
41427;DHT22;27171;51.812;19.514;2023-02-11T03:51:22;1.30;99.90
41427;DHT22;27171;51.812;19.514;2023-02-11T03:54:28;1.20;99.90
41427;DHT22;27171;51.812;19.514;2023-02-11T03:57:30;1.20;99.90
41427;DHT22;27171;51.812;19.514;2023-02-11T04:00:33;1.20;99.90
41427;DHT22;27171;51.812;19.514;2023-02-11T04:03:34;1.20;99.90
41427;DHT22;27171;51.812;19.514;2023-02-11T04:06:35;1.20;99.90
41427;DHT22;27171;51.812;19.514;2023-02-11T04:09:37;1.20;99.90
41427;DHT22;27171;51.812;19.514;2023-02-11T04:12:38;1.20;99.90
41427;DHT22;27171;51.812;19.514;2023-02-11T04:15:39;1.20;99.90
41427;DHT22;27171;51.812;19.514;2023-02-11T04:18:40;1.20;99.90
41427;DHT22;27171;51.812;19.514;2023-02-11T04:21:41;1.10;99.90
41427;DHT22;27171;51.812;19.514;2023-02-11T04:24:43;1.10;99.90
41427;DHT22;27171;51.812;19.514;2023-02-11T04:27:44;1.10;99.90
41427;DHT22;27171;51.812;19.514;2023-02-11T04:30:45;1.10;99.90
41427;DHT22;27171;51.812;19.514;2023-02-11T04:33:46;1.10;99.90
41427;DHT22;27171;51.812;19.514;2023-02-11T04:36:47;1.10;99.90
41427;DHT22;27171;51.812;19.514;2023-02-11T04:39:48;1.10;99.90
41427;DHT22;27171;51.812;19.514;2023-02-11T04:42:49;1.10;99.90
41427;DHT22;27171;51.812;19.514;2023-02-11T04:45:50;1.10;99.90
41427;DHT22;27171;51.812;19.514;2023-02-11T04:48:51;1.10;99.90
41427;DHT22;27171;51.812;19.514;2023-02-11T04:51:53;1.10;99.90
41427;DHT22;27171;51.812;19.514;2023-02-11T04:54:54;1.00;99.90
41427;DHT22;27171;51.812;19.514;2023-02-11T04:57:54;1.00;99.90
41427;DHT22;27171;51.812;19.514;2023-02-11T05:01:07;1.00;99.90
41427;DHT22;27171;51.812;19.514;2023-02-11T05:04:08;1.00;99.90
41427;DHT22;27171;51.812;19.514;2023-02-11T05:07:10;1.00;99.90
41427;DHT22;27171;51.812;19.514;2023-02-11T05:10:11;1.00;99.90
41427;DHT22;27171;51.812;19.514;2023-02-11T05:13:12;1.00;99.90
41427;DHT22;27171;51.812;19.514;2023-02-11T05:16:13;1.10;99.90
41427;DHT22;27171;51.812;19.514;2023-02-11T05:19:15;1.10;99.90
41427;DHT22;27171;51.812;19.514;2023-02-11T05:22:16;1.10;99.90
41427;DHT22;27171;51.812;19.514;2023-02-11T05:25:17;1.00;99.90
41427;DHT22;27171;51.812;19.514;2023-02-11T05:28:18;1.10;99.90
41427;DHT22;27171;51.812;19.514;2023-02-11T05:31:19;1.10;99.90
41427;DHT22;27171;51.812;19.514;2023-02-11T05:34:20;1.10;99.90
41427;DHT22;27171;51.812;19.514;2023-02-11T05:37:21;1.10;99.90
41427;DHT22;27171;51.812;19.514;2023-02-11T05:40:22;1.10;99.90
41427;DHT22;27171;51.812;19.514;2023-02-11T05:43:23;1.20;99.90
41427;DHT22;27171;51.812;19.514;2023-02-11T05:46:24;1.20;99.90
41427;DHT22;27171;51.812;19.514;2023-02-11T05:49:25;1.20;99.90
41427;DHT22;27171;51.812;19.514;2023-02-11T05:52:26;1.20;99.90
41427;DHT22;27171;51.812;19.514;2023-02-11T05:55:27;1.30;99.90
41427;DHT22;27171;51.812;19.514;2023-02-11T05:58:28;1.30;99.90
41427;DHT22;27171;51.812;19.514;2023-02-11T06:01:29;1.30;99.90
41427;DHT22;27171;51.812;19.514;2023-02-11T06:04:30;1.30;99.90
41427;DHT22;27171;51.812;19.514;2023-02-11T06:07:31;1.40;99.90
41427;DHT22;27171;51.812;19.514;2023-02-11T06:10:33;1.40;99.90
41427;DHT22;27171;51.812;19.514;2023-02-11T06:13:34;1.40;99.90
41427;DHT22;27171;51.812;19.514;2023-02-11T06:16:36;1.50;99.90
41427;DHT22;27171;51.812;19.514;2023-02-11T06:19:37;1.50;99.90
41427;DHT22;27171;51.812;19.514;2023-02-11T06:22:38;1.50;99.90
41427;DHT22;27171;51.812;19.514;2023-02-11T06:25:39;1.50;99.90
41427;DHT22;27171;51.812;19.514;2023-02-11T06:28:41;1.50;99.90
41427;DHT22;27171;51.812;19.514;2023-02-11T06:31:42;1.50;99.90
41427;DHT22;27171;51.812;19.514;2023-02-11T06:34:43;1.50;99.90
41427;DHT22;27171;51.812;19.514;2023-02-11T06:37:45;1.50;99.90
41427;DHT22;27171;51.812;19.514;2023-02-11T06:40:47;1.50;99.90
41427;DHT22;27171;51.812;19.514;2023-02-11T06:43:48;1.50;99.90
41427;DHT22;27171;51.812;19.514;2023-02-11T06:46:49;1.50;99.90
41427;DHT22;27171;51.812;19.514;2023-02-11T06:49:50;1.60;99.90
41427;DHT22;27171;51.812;19.514;2023-02-11T06:52:51;1.60;99.90
41427;DHT22;27171;51.812;19.514;2023-02-11T06:55:55;1.60;99.90
41427;DHT22;27171;51.812;19.514;2023-02-11T06:58:56;1.60;99.90
41427;DHT22;27171;51.812;19.514;2023-02-11T07:01:57;1.60;99.90
41427;DHT22;27171;51.812;19.514;2023-02-11T07:04:58;1.70;99.90
41427;DHT22;27171;51.812;19.514;2023-02-11T07:07:59;1.70;99.90
41427;DHT22;27171;51.812;19.514;2023-02-11T07:11:01;1.70;99.90
41427;DHT22;27171;51.812;19.514;2023-02-11T07:14:09;1.70;99.90
41427;DHT22;27171;51.812;19.514;2023-02-11T07:17:10;1.70;99.90
41427;DHT22;27171;51.812;19.514;2023-02-11T07:20:11;1.80;99.90
41427;DHT22;27171;51.812;19.514;2023-02-11T07:23:16;1.80;99.90
41427;DHT22;27171;51.812;19.514;2023-02-11T07:26:19;1.80;99.90
41427;DHT22;27171;51.812;19.514;2023-02-11T07:29:21;1.80;99.90
41427;DHT22;27171;51.812;19.514;2023-02-11T07:32:22;1.80;99.90
41427;DHT22;27171;51.812;19.514;2023-02-11T07:35:24;1.80;99.90
41427;DHT22;27171;51.812;19.514;2023-02-11T07:38:25;1.80;99.90
41427;DHT22;27171;51.812;19.514;2023-02-11T07:41:26;1.80;99.90
41427;DHT22;27171;51.812;19.514;2023-02-11T07:44:27;1.70;99.90
41427;DHT22;27171;51.812;19.514;2023-02-11T07:47:28;1.70;99.90
41427;DHT22;27171;51.812;19.514;2023-02-11T07:50:29;1.70;99.90
41427;DHT22;27171;51.812;19.514;2023-02-11T07:53:30;1.70;99.90
41427;DHT22;27171;51.812;19.514;2023-02-11T07:56:32;1.70;99.90
41427;DHT22;27171;51.812;19.514;2023-02-11T07:59:33;1.60;99.90
41427;DHT22;27171;51.812;19.514;2023-02-11T08:02:36;1.60;99.90
41427;DHT22;27171;51.812;19.514;2023-02-11T08:05:38;1.60;99.90
41427;DHT22;27171;51.812;19.514;2023-02-11T08:08:40;1.70;99.90
41427;DHT22;27171;51.812;19.514;2023-02-11T08:11:42;1.70;99.90
41427;DHT22;27171;51.812;19.514;2023-02-11T08:14:44;1.70;99.90
41427;DHT22;27171;51.812;19.514;2023-02-11T08:17:45;1.70;99.90
41427;DHT22;27171;51.812;19.514;2023-02-11T08:20:46;1.70;99.90
41427;DHT22;27171;51.812;19.514;2023-02-11T08:23:47;1.70;99.90
41427;DHT22;27171;51.812;19.514;2023-02-11T08:26:49;1.70;99.90
41427;DHT22;27171;51.812;19.514;2023-02-11T08:29:50;1.70;99.90
41427;DHT22;27171;51.812;19.514;2023-02-11T08:32:51;1.70;99.90
41427;DHT22;27171;51.812;19.514;2023-02-11T08:35:52;1.70;99.90
41427;DHT22;27171;51.812;19.514;2023-02-11T08:38:54;1.70;99.90
41427;DHT22;27171;51.812;19.514;2023-02-11T08:41:55;1.70;99.90
41427;DHT22;27171;51.812;19.514;2023-02-11T08:44:56;1.70;99.90
41427;DHT22;27171;51.812;19.514;2023-02-11T08:47:57;1.60;99.90
41427;DHT22;27171;51.812;19.514;2023-02-11T08:50:58;1.60;99.90
41427;DHT22;27171;51.812;19.514;2023-02-11T08:53:59;1.70;99.90
41427;DHT22;27171;51.812;19.514;2023-02-11T08:57:01;1.60;99.90
41427;DHT22;27171;51.812;19.514;2023-02-11T09:00:03;1.70;99.90
41427;DHT22;27171;51.812;19.514;2023-02-11T09:03:04;1.70;99.90
41427;DHT22;27171;51.812;19.514;2023-02-11T09:06:07;1.70;99.90
41427;DHT22;27171;51.812;19.514;2023-02-11T09:09:11;1.70;99.90
41427;DHT22;27171;51.812;19.514;2023-02-11T09:12:12;1.80;99.90
41427;DHT22;27171;51.812;19.514;2023-02-11T09:15:13;1.80;99.90
41427;DHT22;27171;51.812;19.514;2023-02-11T09:18:14;1.80;99.90
41427;DHT22;27171;51.812;19.514;2023-02-11T09:21:16;1.80;99.90
41427;DHT22;27171;51.812;19.514;2023-02-11T09:24:17;1.80;99.90
41427;DHT22;27171;51.812;19.514;2023-02-11T09:27:19;1.70;99.90
41427;DHT22;27171;51.812;19.514;2023-02-11T09:30:20;1.70;99.90
41427;DHT22;27171;51.812;19.514;2023-02-11T09:33:21;1.80;99.90
41427;DHT22;27171;51.812;19.514;2023-02-11T09:36:25;1.80;99.90
41427;DHT22;27171;51.812;19.514;2023-02-11T09:39:26;1.80;99.90
41427;DHT22;27171;51.812;19.514;2023-02-11T09:46:01;1.80;99.90
41427;DHT22;27171;51.812;19.514;2023-02-11T09:49:02;1.80;99.90
41427;DHT22;27171;51.812;19.514;2023-02-11T09:52:12;1.80;99.90
41427;DHT22;27171;51.812;19.514;2023-02-11T09:55:42;1.80;99.90
41427;DHT22;27171;51.812;19.514;2023-02-11T09:58:42;1.80;99.90
41427;DHT22;27171;51.812;19.514;2023-02-11T10:01:52;1.80;99.90
41427;DHT22;27171;51.812;19.514;2023-02-11T10:05:04;1.80;99.90
41427;DHT22;27171;51.812;19.514;2023-02-11T10:14:35;1.90;99.90
41427;DHT22;27171;51.812;19.514;2023-02-11T10:24:12;2.00;99.90
41427;DHT22;27171;51.812;19.514;2023-02-11T10:27:18;2.00;99.90
41427;DHT22;27171;51.812;19.514;2023-02-11T10:30:36;2.00;99.90
41427;DHT22;27171;51.812;19.514;2023-02-11T10:37:04;2.00;99.90
41427;DHT22;27171;51.812;19.514;2023-02-11T10:40:20;2.10;99.90
41427;DHT22;27171;51.812;19.514;2023-02-11T10:43:26;2.10;99.90
41427;DHT22;27171;51.812;19.514;2023-02-11T10:50:28;2.10;99.90
41427;DHT22;27171;51.812;19.514;2023-02-11T10:53:30;2.10;99.90
41427;DHT22;27171;51.812;19.514;2023-02-11T10:56:32;2.10;99.90
41427;DHT22;27171;51.812;19.514;2023-02-11T10:59:36;2.10;99.90
41427;DHT22;27171;51.812;19.514;2023-02-11T11:02:38;2.10;99.90
41427;DHT22;27171;51.812;19.514;2023-02-11T11:05:55;2.10;99.90
41427;DHT22;27171;51.812;19.514;2023-02-11T11:08:57;2.10;99.90
41427;DHT22;27171;51.812;19.514;2023-02-11T11:11:58;2.10;99.90
41427;DHT22;27171;51.812;19.514;2023-02-11T11:15:19;2.10;99.90
41427;DHT22;27171;51.812;19.514;2023-02-11T11:18:21;2.20;99.90
41427;DHT22;27171;51.812;19.514;2023-02-11T11:21:23;2.20;99.90
41427;DHT22;27171;51.812;19.514;2023-02-11T11:24:32;2.20;99.90
41427;DHT22;27171;51.812;19.514;2023-02-11T11:27:34;2.20;99.90
41427;DHT22;27171;51.812;19.514;2023-02-11T11:30:41;2.20;99.90
41427;DHT22;27171;51.812;19.514;2023-02-11T11:33:43;2.20;99.90
41427;DHT22;27171;51.812;19.514;2023-02-11T11:36:45;2.20;99.90
41427;DHT22;27171;51.812;19.514;2023-02-11T11:40:02;2.30;99.90
41427;DHT22;27171;51.812;19.514;2023-02-11T11:43:17;2.30;99.90
41427;DHT22;27171;51.812;19.514;2023-02-11T11:46:32;2.30;99.90
41427;DHT22;27171;51.812;19.514;2023-02-11T11:56:23;2.40;99.90
41427;DHT22;27171;51.812;19.514;2023-02-11T11:59:26;2.50;99.90
41427;DHT22;27171;51.812;19.514;2023-02-11T12:02:42;2.50;99.90
41427;DHT22;27171;51.812;19.514;2023-02-11T12:13:15;2.60;99.90
41427;DHT22;27171;51.812;19.514;2023-02-11T12:16:18;2.60;99.90
41427;DHT22;27171;51.812;19.514;2023-02-11T12:19:27;2.60;99.90
41427;DHT22;27171;51.812;19.514;2023-02-11T12:26:23;2.70;99.90
41427;DHT22;27171;51.812;19.514;2023-02-11T12:39:56;2.90;99.90
41427;DHT22;27171;51.812;19.514;2023-02-11T12:46:32;3.00;99.90
41427;DHT22;27171;51.812;19.514;2023-02-11T12:53:52;3.00;99.90
41427;DHT22;27171;51.812;19.514;2023-02-11T12:56:29;3.00;99.90
41427;DHT22;27171;51.812;19.514;2023-02-11T12:59:39;3.10;99.90
41427;DHT22;27171;51.812;19.514;2023-02-11T13:06:08;3.10;99.90
41427;DHT22;27171;51.812;19.514;2023-02-11T13:09:17;3.10;99.90
41427;DHT22;27171;51.812;19.514;2023-02-11T13:12:19;3.10;99.90
41427;DHT22;27171;51.812;19.514;2023-02-11T13:15:21;3.10;99.90
41427;DHT22;27171;51.812;19.514;2023-02-11T13:21:44;3.20;99.90
41427;DHT22;27171;51.812;19.514;2023-02-11T13:24:52;3.20;99.90
41427;DHT22;27171;51.812;19.514;2023-02-11T13:31:28;3.20;99.90
41427;DHT22;27171;51.812;19.514;2023-02-11T13:37:50;3.30;99.90
41427;DHT22;27171;51.812;19.514;2023-02-11T13:41:14;3.20;99.90
41427;DHT22;27171;51.812;19.514;2023-02-11T13:44:22;3.30;99.90
41427;DHT22;27171;51.812;19.514;2023-02-11T13:47:25;3.30;99.90
41427;DHT22;27171;51.812;19.514;2023-02-11T13:50:27;3.30;99.90
41427;DHT22;27171;51.812;19.514;2023-02-11T14:03:37;3.40;99.90
41427;DHT22;27171;51.812;19.514;2023-02-11T14:20:33;3.40;99.90
41427;DHT22;27171;51.812;19.514;2023-02-11T14:23:35;3.40;99.90
41427;DHT22;27171;51.812;19.514;2023-02-11T14:27:20;3.40;99.90
41427;DHT22;27171;51.812;19.514;2023-02-11T14:30:22;3.40;99.90
41427;DHT22;27171;51.812;19.514;2023-02-11T14:43:19;3.50;99.90
41427;DHT22;27171;51.812;19.514;2023-02-11T14:46:21;3.50;99.90
41427;DHT22;27171;51.812;19.514;2023-02-11T14:49:30;3.50;99.90
41427;DHT22;27171;51.812;19.514;2023-02-11T14:52:35;3.50;99.90
41427;DHT22;27171;51.812;19.514;2023-02-11T14:55:40;3.60;99.90
41427;DHT22;27171;51.812;19.514;2023-02-11T14:58:46;3.60;99.90
41427;DHT22;27171;51.812;19.514;2023-02-11T15:01:50;3.60;99.90
41427;DHT22;27171;51.812;19.514;2023-02-11T15:04:52;3.60;99.90
41427;DHT22;27171;51.812;19.514;2023-02-11T15:07:54;3.60;99.90
41427;DHT22;27171;51.812;19.514;2023-02-11T15:10:56;3.60;99.90
41427;DHT22;27171;51.812;19.514;2023-02-11T15:14:05;3.60;99.90
41427;DHT22;27171;51.812;19.514;2023-02-11T15:17:07;3.70;99.90
41427;DHT22;27171;51.812;19.514;2023-02-11T15:20:18;3.70;99.90
41427;DHT22;27171;51.812;19.514;2023-02-11T15:23:23;3.70;99.90
41427;DHT22;27171;51.812;19.514;2023-02-11T15:26:25;3.70;99.90
41427;DHT22;27171;51.812;19.514;2023-02-11T15:29:38;3.70;99.90
41427;DHT22;27171;51.812;19.514;2023-02-11T15:32:43;3.70;99.90
41427;DHT22;27171;51.812;19.514;2023-02-11T15:35:44;3.70;99.90
41427;DHT22;27171;51.812;19.514;2023-02-11T15:38:45;3.70;99.90
41427;DHT22;27171;51.812;19.514;2023-02-11T15:42:27;3.70;99.90
41427;DHT22;27171;51.812;19.514;2023-02-11T15:48:53;3.70;99.90
41427;DHT22;27171;51.812;19.514;2023-02-11T15:51:55;3.80;99.90
41427;DHT22;27171;51.812;19.514;2023-02-11T15:54:58;3.80;99.90
41427;DHT22;27171;51.812;19.514;2023-02-11T15:58:01;3.80;99.90
41427;DHT22;27171;51.812;19.514;2023-02-11T16:01:02;3.80;99.90
41427;DHT22;27171;51.812;19.514;2023-02-11T16:04:04;3.80;99.90
41427;DHT22;27171;51.812;19.514;2023-02-11T16:07:05;3.80;99.90
41427;DHT22;27171;51.812;19.514;2023-02-11T16:10:20;3.80;99.90
41427;DHT22;27171;51.812;19.514;2023-02-11T16:13:22;3.80;99.90
41427;DHT22;27171;51.812;19.514;2023-02-11T16:16:28;3.80;99.90
41427;DHT22;27171;51.812;19.514;2023-02-11T16:19:32;3.80;99.90
41427;DHT22;27171;51.812;19.514;2023-02-11T16:22:33;3.80;99.90
41427;DHT22;27171;51.812;19.514;2023-02-11T16:25:35;3.80;99.90
41427;DHT22;27171;51.812;19.514;2023-02-11T16:28:37;3.80;99.90
41427;DHT22;27171;51.812;19.514;2023-02-11T16:31:41;3.80;99.90
41427;DHT22;27171;51.812;19.514;2023-02-11T16:34:44;3.80;99.90
41427;DHT22;27171;51.812;19.514;2023-02-11T16:38:00;3.80;99.90
41427;DHT22;27171;51.812;19.514;2023-02-11T16:41:01;3.80;99.90
41427;DHT22;27171;51.812;19.514;2023-02-11T16:44:02;3.80;99.90
41427;DHT22;27171;51.812;19.514;2023-02-11T16:47:06;3.80;99.90
41427;DHT22;27171;51.812;19.514;2023-02-11T16:50:10;3.90;99.90
41427;DHT22;27171;51.812;19.514;2023-02-11T16:53:15;3.90;99.90
41427;DHT22;27171;51.812;19.514;2023-02-11T16:56:17;3.90;99.90
41427;DHT22;27171;51.812;19.514;2023-02-11T16:59:19;3.90;99.90
41427;DHT22;27171;51.812;19.514;2023-02-11T17:05:24;3.90;99.90
41427;DHT22;27171;51.812;19.514;2023-02-11T17:08:25;3.90;99.90
41427;DHT22;27171;51.812;19.514;2023-02-11T17:11:26;3.90;99.90
41427;DHT22;27171;51.812;19.514;2023-02-11T17:14:27;3.90;99.90
41427;DHT22;27171;51.812;19.514;2023-02-11T17:17:28;3.90;99.90
41427;DHT22;27171;51.812;19.514;2023-02-11T17:20:29;3.90;99.90
41427;DHT22;27171;51.812;19.514;2023-02-11T17:23:31;3.90;99.90
41427;DHT22;27171;51.812;19.514;2023-02-11T17:26:32;3.90;99.90
41427;DHT22;27171;51.812;19.514;2023-02-11T17:29:33;4.00;99.90
41427;DHT22;27171;51.812;19.514;2023-02-11T17:32:37;4.00;99.90
41427;DHT22;27171;51.812;19.514;2023-02-11T17:35:39;4.00;99.90
41427;DHT22;27171;51.812;19.514;2023-02-11T17:38:40;4.00;99.90
41427;DHT22;27171;51.812;19.514;2023-02-11T17:41:41;4.00;99.90
41427;DHT22;27171;51.812;19.514;2023-02-11T17:44:43;4.10;99.90
41427;DHT22;27171;51.812;19.514;2023-02-11T17:47:44;4.10;99.90
41427;DHT22;27171;51.812;19.514;2023-02-11T17:50:45;4.10;99.90
41427;DHT22;27171;51.812;19.514;2023-02-11T17:53:46;4.10;99.90
41427;DHT22;27171;51.812;19.514;2023-02-11T17:56:47;4.10;99.90
41427;DHT22;27171;51.812;19.514;2023-02-11T17:59:48;4.20;99.90
41427;DHT22;27171;51.812;19.514;2023-02-11T18:02:49;4.20;99.90
41427;DHT22;27171;51.812;19.514;2023-02-11T18:05:51;4.20;99.90
41427;DHT22;27171;51.812;19.514;2023-02-11T18:08:52;4.20;99.90
41427;DHT22;27171;51.812;19.514;2023-02-11T18:11:53;4.20;99.90
41427;DHT22;27171;51.812;19.514;2023-02-11T18:14:54;4.30;99.90
41427;DHT22;27171;51.812;19.514;2023-02-11T18:17:56;4.30;99.90
41427;DHT22;27171;51.812;19.514;2023-02-11T18:20:59;4.30;99.90
41427;DHT22;27171;51.812;19.514;2023-02-11T18:24:00;4.30;99.90
41427;DHT22;27171;51.812;19.514;2023-02-11T18:27:01;4.30;99.90
41427;DHT22;27171;51.812;19.514;2023-02-11T18:30:02;4.30;99.90
41427;DHT22;27171;51.812;19.514;2023-02-11T18:33:04;4.30;99.90
41427;DHT22;27171;51.812;19.514;2023-02-11T18:36:06;4.30;99.90
41427;DHT22;27171;51.812;19.514;2023-02-11T18:39:08;4.40;99.90
41427;DHT22;27171;51.812;19.514;2023-02-11T18:42:09;4.40;99.90
41427;DHT22;27171;51.812;19.514;2023-02-11T18:45:11;4.40;99.90
41427;DHT22;27171;51.812;19.514;2023-02-11T18:48:13;4.40;99.90
41427;DHT22;27171;51.812;19.514;2023-02-11T18:51:16;4.40;99.90
41427;DHT22;27171;51.812;19.514;2023-02-11T18:54:18;4.50;99.90
41427;DHT22;27171;51.812;19.514;2023-02-11T18:57:19;4.50;99.90
41427;DHT22;27171;51.812;19.514;2023-02-11T19:00:21;4.50;99.90
41427;DHT22;27171;51.812;19.514;2023-02-11T19:03:22;4.50;99.90
41427;DHT22;27171;51.812;19.514;2023-02-11T19:06:28;4.50;99.90
41427;DHT22;27171;51.812;19.514;2023-02-11T19:09:30;4.50;99.90
41427;DHT22;27171;51.812;19.514;2023-02-11T19:12:31;4.50;99.90
41427;DHT22;27171;51.812;19.514;2023-02-11T19:15:32;4.50;99.90
41427;DHT22;27171;51.812;19.514;2023-02-11T19:18:34;4.60;99.90
41427;DHT22;27171;51.812;19.514;2023-02-11T19:21:37;4.60;99.90
41427;DHT22;27171;51.812;19.514;2023-02-11T19:24:44;4.60;99.90
41427;DHT22;27171;51.812;19.514;2023-02-11T19:27:48;4.60;99.90
41427;DHT22;27171;51.812;19.514;2023-02-11T19:30:50;4.60;99.90
41427;DHT22;27171;51.812;19.514;2023-02-11T19:33:52;4.60;99.90
41427;DHT22;27171;51.812;19.514;2023-02-11T19:36:53;4.60;99.90
41427;DHT22;27171;51.812;19.514;2023-02-11T19:39:54;4.60;99.90
41427;DHT22;27171;51.812;19.514;2023-02-11T19:42:56;4.60;99.90
41427;DHT22;27171;51.812;19.514;2023-02-11T19:46:03;4.60;99.90
41427;DHT22;27171;51.812;19.514;2023-02-11T19:49:04;4.60;99.90
41427;DHT22;27171;51.812;19.514;2023-02-11T19:52:06;4.70;99.90
41427;DHT22;27171;51.812;19.514;2023-02-11T19:55:07;4.60;99.90
41427;DHT22;27171;51.812;19.514;2023-02-11T19:58:08;4.60;99.90
41427;DHT22;27171;51.812;19.514;2023-02-11T20:01:13;4.60;99.90
41427;DHT22;27171;51.812;19.514;2023-02-11T20:04:16;4.70;99.90
41427;DHT22;27171;51.812;19.514;2023-02-11T20:07:17;4.60;99.90
41427;DHT22;27171;51.812;19.514;2023-02-11T20:10:18;4.70;99.90
41427;DHT22;27171;51.812;19.514;2023-02-11T20:13:19;4.60;99.90
41427;DHT22;27171;51.812;19.514;2023-02-11T20:16:21;4.70;99.90
41427;DHT22;27171;51.812;19.514;2023-02-11T20:19:23;4.70;99.90
41427;DHT22;27171;51.812;19.514;2023-02-11T20:22:24;4.60;99.90
41427;DHT22;27171;51.812;19.514;2023-02-11T20:25:25;4.70;99.90
41427;DHT22;27171;51.812;19.514;2023-02-11T20:28:26;4.70;99.90
41427;DHT22;27171;51.812;19.514;2023-02-11T20:31:30;4.70;99.90
41427;DHT22;27171;51.812;19.514;2023-02-11T20:34:32;4.70;99.90
41427;DHT22;27171;51.812;19.514;2023-02-11T20:37:34;4.70;99.90
41427;DHT22;27171;51.812;19.514;2023-02-11T20:40:35;4.70;99.90
41427;DHT22;27171;51.812;19.514;2023-02-11T20:43:36;4.70;99.90
41427;DHT22;27171;51.812;19.514;2023-02-11T20:46:38;4.70;99.90
41427;DHT22;27171;51.812;19.514;2023-02-11T20:49:39;4.70;99.90
41427;DHT22;27171;51.812;19.514;2023-02-11T20:52:41;4.70;99.90
41427;DHT22;27171;51.812;19.514;2023-02-11T20:55:42;4.70;99.90
41427;DHT22;27171;51.812;19.514;2023-02-11T20:58:43;4.70;99.90
41427;DHT22;27171;51.812;19.514;2023-02-11T21:01:45;4.70;99.90
41427;DHT22;27171;51.812;19.514;2023-02-11T21:04:46;4.70;99.90
41427;DHT22;27171;51.812;19.514;2023-02-11T21:07:47;4.70;99.90
41427;DHT22;27171;51.812;19.514;2023-02-11T21:10:49;4.70;99.90
41427;DHT22;27171;51.812;19.514;2023-02-11T21:13:50;4.70;99.90
41427;DHT22;27171;51.812;19.514;2023-02-11T21:16:51;4.70;99.90
41427;DHT22;27171;51.812;19.514;2023-02-11T21:19:52;4.70;99.90
41427;DHT22;27171;51.812;19.514;2023-02-11T21:22:53;4.70;99.90
41427;DHT22;27171;51.812;19.514;2023-02-11T21:25:55;4.70;99.90
41427;DHT22;27171;51.812;19.514;2023-02-11T21:28:56;4.70;99.90
41427;DHT22;27171;51.812;19.514;2023-02-11T21:31:57;4.70;99.90
41427;DHT22;27171;51.812;19.514;2023-02-11T21:34:59;4.70;99.90
41427;DHT22;27171;51.812;19.514;2023-02-11T21:38:02;4.70;99.90
41427;DHT22;27171;51.812;19.514;2023-02-11T21:41:03;4.70;99.90